sensor_id;sensor_type;location;lat;lon;timestamp;P1;durP1;ratioP1;P2;durP2;ratioP2
78916;SDS011;68315;48.608;11.436;2023-11-19T00:01:43;2.45;;;2.25;;
78916;SDS011;68315;48.608;11.436;2023-11-19T00:04:08;2.70;;;2.40;;
78916;SDS011;68315;48.608;11.436;2023-11-19T00:06:33;3.63;;;2.70;;
78916;SDS011;68315;48.608;11.436;2023-11-19T00:08:59;2.60;;;2.40;;
78916;SDS011;68315;48.608;11.436;2023-11-19T00:11:25;2.20;;;2.00;;
78916;SDS011;68315;48.608;11.436;2023-11-19T00:13:50;2.92;;;2.70;;
78916;SDS011;68315;48.608;11.436;2023-11-19T00:16:15;2.85;;;2.50;;
78916;SDS011;68315;48.608;11.436;2023-11-19T00:18:41;2.78;;;2.42;;
78916;SDS011;68315;48.608;11.436;2023-11-19T00:21:06;2.40;;;2.20;;
78916;SDS011;68315;48.608;11.436;2023-11-19T00:23:33;3.70;;;2.50;;
78916;SDS011;68315;48.608;11.436;2023-11-19T00:25:58;3.38;;;2.85;;
78916;SDS011;68315;48.608;11.436;2023-11-19T00:28:23;2.55;;;2.30;;
78916;SDS011;68315;48.608;11.436;2023-11-19T00:30:49;3.00;;;2.65;;
78916;SDS011;68315;48.608;11.436;2023-11-19T00:33:14;3.30;;;2.90;;
78916;SDS011;68315;48.608;11.436;2023-11-19T00:35:39;4.25;;;2.60;;
78916;SDS011;68315;48.608;11.436;2023-11-19T00:38:05;2.47;;;2.28;;
78916;SDS011;68315;48.608;11.436;2023-11-19T00:40:30;2.72;;;2.47;;
78916;SDS011;68315;48.608;11.436;2023-11-19T00:42:55;3.38;;;2.75;;
78916;SDS011;68315;48.608;11.436;2023-11-19T00:45:20;3.17;;;2.88;;
78916;SDS011;68315;48.608;11.436;2023-11-19T00:47:45;3.88;;;2.90;;
78916;SDS011;68315;48.608;11.436;2023-11-19T00:50:11;3.50;;;3.20;;
78916;SDS011;68315;48.608;11.436;2023-11-19T00:52:36;3.65;;;3.25;;
78916;SDS011;68315;48.608;11.436;2023-11-19T00:55:02;4.03;;;3.60;;
78916;SDS011;68315;48.608;11.436;2023-11-19T00:57:29;3.33;;;3.03;;
78916;SDS011;68315;48.608;11.436;2023-11-19T00:59:55;3.85;;;3.45;;
78916;SDS011;68315;48.608;11.436;2023-11-19T01:02:20;3.60;;;3.30;;
78916;SDS011;68315;48.608;11.436;2023-11-19T01:04:45;5.05;;;3.53;;
78916;SDS011;68315;48.608;11.436;2023-11-19T01:07:11;4.05;;;3.70;;
78916;SDS011;68315;48.608;11.436;2023-11-19T01:09:37;4.38;;;3.42;;
78916;SDS011;68315;48.608;11.436;2023-11-19T01:12:03;4.22;;;3.42;;
78916;SDS011;68315;48.608;11.436;2023-11-19T01:14:29;6.00;;;3.60;;
78916;SDS011;68315;48.608;11.436;2023-11-19T01:16:55;3.75;;;3.45;;
78916;SDS011;68315;48.608;11.436;2023-11-19T01:19:21;3.20;;;2.90;;
78916;SDS011;68315;48.608;11.436;2023-11-19T01:21:47;3.40;;;2.83;;
78916;SDS011;68315;48.608;11.436;2023-11-19T01:24:12;4.03;;;3.13;;
78916;SDS011;68315;48.608;11.436;2023-11-19T01:26:39;5.43;;;3.50;;
78916;SDS011;68315;48.608;11.436;2023-11-19T01:29:10;3.75;;;3.00;;
78916;SDS011;68315;48.608;11.436;2023-11-19T01:31:35;3.95;;;2.58;;
78916;SDS011;68315;48.608;11.436;2023-11-19T01:34:02;3.92;;;3.38;;
78916;SDS011;68315;48.608;11.436;2023-11-19T01:36:27;3.92;;;3.53;;
78916;SDS011;68315;48.608;11.436;2023-11-19T01:38:53;4.80;;;3.00;;
78916;SDS011;68315;48.608;11.436;2023-11-19T01:41:18;2.50;;;2.30;;
78916;SDS011;68315;48.608;11.436;2023-11-19T01:43:43;3.42;;;2.97;;
78916;SDS011;68315;48.608;11.436;2023-11-19T01:46:12;3.00;;;2.70;;
78916;SDS011;68315;48.608;11.436;2023-11-19T01:48:41;3.42;;;3.13;;
78916;SDS011;68315;48.608;11.436;2023-11-19T01:51:09;3.10;;;2.50;;
78916;SDS011;68315;48.608;11.436;2023-11-19T01:53:36;2.72;;;2.30;;
78916;SDS011;68315;48.608;11.436;2023-11-19T01:56:03;2.90;;;2.33;;
78916;SDS011;68315;48.608;11.436;2023-11-19T01:58:33;2.40;;;2.20;;
78916;SDS011;68315;48.608;11.436;2023-11-19T02:00:59;3.08;;;2.22;;
78916;SDS011;68315;48.608;11.436;2023-11-19T02:03:25;2.63;;;2.10;;
78916;SDS011;68315;48.608;11.436;2023-11-19T02:05:51;2.55;;;2.10;;
78916;SDS011;68315;48.608;11.436;2023-11-19T02:08:18;2.20;;;1.98;;
78916;SDS011;68315;48.608;11.436;2023-11-19T02:10:44;2.03;;;1.90;;
78916;SDS011;68315;48.608;11.436;2023-11-19T02:13:09;2.78;;;2.28;;
78916;SDS011;68315;48.608;11.436;2023-11-19T02:15:35;2.25;;;2.05;;
78916;SDS011;68315;48.608;11.436;2023-11-19T02:20:46;2.90;;;2.00;;
78916;SDS011;68315;48.608;11.436;2023-11-19T02:23:13;1.98;;;1.85;;
78916;SDS011;68315;48.608;11.436;2023-11-19T02:25:38;2.08;;;1.88;;
78916;SDS011;68315;48.608;11.436;2023-11-19T02:28:05;2.25;;;2.05;;
78916;SDS011;68315;48.608;11.436;2023-11-19T02:30:31;2.17;;;1.98;;
78916;SDS011;68315;48.608;11.436;2023-11-19T02:32:57;3.15;;;2.70;;
78916;SDS011;68315;48.608;11.436;2023-11-19T02:35:27;2.83;;;2.42;;
78916;SDS011;68315;48.608;11.436;2023-11-19T02:37:53;2.38;;;2.08;;
78916;SDS011;68315;48.608;11.436;2023-11-19T02:40:19;2.10;;;1.90;;
78916;SDS011;68315;48.608;11.436;2023-11-19T02:42:44;2.30;;;2.10;;
78916;SDS011;68315;48.608;11.436;2023-11-19T02:45:10;2.20;;;2.00;;
78916;SDS011;68315;48.608;11.436;2023-11-19T02:47:40;2.20;;;2.00;;
78916;SDS011;68315;48.608;11.436;2023-11-19T02:50:07;2.47;;;2.25;;
78916;SDS011;68315;48.608;11.436;2023-11-19T02:52:38;2.50;;;1.80;;
78916;SDS011;68315;48.608;11.436;2023-11-19T02:55:04;1.92;;;1.80;;
78916;SDS011;68315;48.608;11.436;2023-11-19T02:57:34;2.10;;;1.92;;
78916;SDS011;68315;48.608;11.436;2023-11-19T03:00:02;2.85;;;1.90;;
78916;SDS011;68315;48.608;11.436;2023-11-19T03:02:37;2.97;;;2.60;;
78916;SDS011;68315;48.608;11.436;2023-11-19T03:05:10;2.45;;;2.25;;
78916;SDS011;68315;48.608;11.436;2023-11-19T03:07:36;3.58;;;2.88;;
78916;SDS011;68315;48.608;11.436;2023-11-19T03:10:05;4.32;;;3.42;;
78916;SDS011;68315;48.608;11.436;2023-11-19T03:12:31;4.20;;;3.40;;
78916;SDS011;68315;48.608;11.436;2023-11-19T03:14:57;6.05;;;3.00;;
78916;SDS011;68315;48.608;11.436;2023-11-19T03:17:22;3.83;;;3.10;;
78916;SDS011;68315;48.608;11.436;2023-11-19T03:19:49;3.67;;;3.00;;
78916;SDS011;68315;48.608;11.436;2023-11-19T03:22:14;3.33;;;2.97;;
78916;SDS011;68315;48.608;11.436;2023-11-19T03:24:40;4.40;;;3.85;;
78916;SDS011;68315;48.608;11.436;2023-11-19T03:27:05;4.18;;;3.47;;
78916;SDS011;68315;48.608;11.436;2023-11-19T03:29:30;4.55;;;3.65;;
78916;SDS011;68315;48.608;11.436;2023-11-19T03:31:55;3.70;;;3.38;;
78916;SDS011;68315;48.608;11.436;2023-11-19T03:34:20;5.28;;;4.45;;
78916;SDS011;68315;48.608;11.436;2023-11-19T03:36:46;4.20;;;3.80;;
78916;SDS011;68315;48.608;11.436;2023-11-19T03:39:12;4.20;;;3.42;;
78916;SDS011;68315;48.608;11.436;2023-11-19T03:41:37;3.97;;;3.30;;
78916;SDS011;68315;48.608;11.436;2023-11-19T03:44:02;5.88;;;4.15;;
78916;SDS011;68315;48.608;11.436;2023-11-19T03:46:27;5.88;;;4.18;;
78916;SDS011;68315;48.608;11.436;2023-11-19T03:48:55;7.45;;;4.13;;
78916;SDS011;68315;48.608;11.436;2023-11-19T03:51:20;6.57;;;4.70;;
78916;SDS011;68315;48.608;11.436;2023-11-19T03:53:45;5.88;;;4.80;;
78916;SDS011;68315;48.608;11.436;2023-11-19T03:56:11;5.03;;;3.90;;
78916;SDS011;68315;48.608;11.436;2023-11-19T03:58:36;4.82;;;4.10;;
78916;SDS011;68315;48.608;11.436;2023-11-19T04:01:03;5.60;;;4.22;;
78916;SDS011;68315;48.608;11.436;2023-11-19T04:03:28;4.53;;;3.97;;
78916;SDS011;68315;48.608;11.436;2023-11-19T04:05:54;4.85;;;3.90;;
78916;SDS011;68315;48.608;11.436;2023-11-19T04:08:19;6.97;;;4.75;;
78916;SDS011;68315;48.608;11.436;2023-11-19T04:10:44;5.20;;;4.05;;
78916;SDS011;68315;48.608;11.436;2023-11-19T04:13:10;4.72;;;4.20;;
78916;SDS011;68315;48.608;11.436;2023-11-19T04:15:35;4.72;;;3.70;;
78916;SDS011;68315;48.608;11.436;2023-11-19T04:18:00;4.72;;;3.90;;
78916;SDS011;68315;48.608;11.436;2023-11-19T04:20:26;4.95;;;4.07;;
78916;SDS011;68315;48.608;11.436;2023-11-19T04:22:51;5.10;;;4.22;;
78916;SDS011;68315;48.608;11.436;2023-11-19T04:25:16;4.63;;;4.03;;
78916;SDS011;68315;48.608;11.436;2023-11-19T04:27:41;5.75;;;4.45;;
78916;SDS011;68315;48.608;11.436;2023-11-19T04:30:07;6.22;;;4.93;;
78916;SDS011;68315;48.608;11.436;2023-11-19T04:32:35;6.28;;;4.72;;
78916;SDS011;68315;48.608;11.436;2023-11-19T04:35:00;7.40;;;5.70;;
78916;SDS011;68315;48.608;11.436;2023-11-19T04:37:25;7.63;;;5.97;;
78916;SDS011;68315;48.608;11.436;2023-11-19T04:39:50;7.40;;;5.82;;
78916;SDS011;68315;48.608;11.436;2023-11-19T04:42:16;7.88;;;5.97;;
78916;SDS011;68315;48.608;11.436;2023-11-19T04:44:42;7.55;;;5.55;;
78916;SDS011;68315;48.608;11.436;2023-11-19T04:47:08;7.25;;;5.05;;
78916;SDS011;68315;48.608;11.436;2023-11-19T04:49:35;6.28;;;5.57;;
78916;SDS011;68315;48.608;11.436;2023-11-19T04:52:05;6.22;;;5.05;;
78916;SDS011;68315;48.608;11.436;2023-11-19T04:54:30;7.43;;;5.22;;
78916;SDS011;68315;48.608;11.436;2023-11-19T04:56:55;6.72;;;4.97;;
78916;SDS011;68315;48.608;11.436;2023-11-19T04:59:20;5.78;;;4.70;;
78916;SDS011;68315;48.608;11.436;2023-11-19T05:01:46;5.03;;;4.00;;
78916;SDS011;68315;48.608;11.436;2023-11-19T05:04:12;4.80;;;3.83;;
78916;SDS011;68315;48.608;11.436;2023-11-19T05:06:37;3.90;;;3.17;;
78916;SDS011;68315;48.608;11.436;2023-11-19T05:09:02;4.28;;;3.38;;
78916;SDS011;68315;48.608;11.436;2023-11-19T05:11:33;5.55;;;4.53;;
78916;SDS011;68315;48.608;11.436;2023-11-19T05:13:59;7.03;;;4.88;;
78916;SDS011;68315;48.608;11.436;2023-11-19T05:16:24;5.93;;;4.65;;
78916;SDS011;68315;48.608;11.436;2023-11-19T05:18:49;6.25;;;3.88;;
78916;SDS011;68315;48.608;11.436;2023-11-19T05:21:15;4.60;;;3.40;;
78916;SDS011;68315;48.608;11.436;2023-11-19T05:23:40;3.17;;;2.88;;
78916;SDS011;68315;48.608;11.436;2023-11-19T05:26:06;3.20;;;2.90;;
78916;SDS011;68315;48.608;11.436;2023-11-19T05:28:32;2.50;;;2.30;;
78916;SDS011;68315;48.608;11.436;2023-11-19T05:30:57;2.58;;;2.38;;
78916;SDS011;68315;48.608;11.436;2023-11-19T05:33:22;2.55;;;2.35;;
78916;SDS011;68315;48.608;11.436;2023-11-19T05:35:48;2.38;;;2.17;;
78916;SDS011;68315;48.608;11.436;2023-11-19T05:38:13;2.72;;;2.42;;
78916;SDS011;68315;48.608;11.436;2023-11-19T05:40:39;2.30;;;1.75;;
78916;SDS011;68315;48.608;11.436;2023-11-19T05:43:06;2.50;;;2.00;;
78916;SDS011;68315;48.608;11.436;2023-11-19T05:45:31;1.90;;;1.70;;
78916;SDS011;68315;48.608;11.436;2023-11-19T05:47:57;2.25;;;2.05;;
78916;SDS011;68315;48.608;11.436;2023-11-19T05:50:22;1.83;;;1.63;;
78916;SDS011;68315;48.608;11.436;2023-11-19T05:52:47;2.05;;;1.90;;
78916;SDS011;68315;48.608;11.436;2023-11-19T05:55:12;2.30;;;2.08;;
78916;SDS011;68315;48.608;11.436;2023-11-19T05:57:39;2.00;;;1.80;;
78916;SDS011;68315;48.608;11.436;2023-11-19T06:00:05;2.28;;;1.90;;
78916;SDS011;68315;48.608;11.436;2023-11-19T06:02:34;1.67;;;1.55;;
78916;SDS011;68315;48.608;11.436;2023-11-19T06:05:00;3.50;;;1.90;;
78916;SDS011;68315;48.608;11.436;2023-11-19T06:07:26;2.30;;;1.95;;
78916;SDS011;68315;48.608;11.436;2023-11-19T06:09:51;2.50;;;1.80;;
78916;SDS011;68315;48.608;11.436;2023-11-19T06:12:17;4.10;;;2.22;;
78916;SDS011;68315;48.608;11.436;2023-11-19T06:14:42;2.05;;;1.85;;
78916;SDS011;68315;48.608;11.436;2023-11-19T06:17:07;2.53;;;2.33;;
78916;SDS011;68315;48.608;11.436;2023-11-19T06:19:33;2.45;;;2.03;;
78916;SDS011;68315;48.608;11.436;2023-11-19T06:21:59;4.18;;;2.35;;
78916;SDS011;68315;48.608;11.436;2023-11-19T06:24:24;3.60;;;2.17;;
78916;SDS011;68315;48.608;11.436;2023-11-19T06:26:49;3.42;;;2.15;;
78916;SDS011;68315;48.608;11.436;2023-11-19T06:29:14;2.65;;;2.45;;
78916;SDS011;68315;48.608;11.436;2023-11-19T06:31:43;5.00;;;2.30;;
78916;SDS011;68315;48.608;11.436;2023-11-19T06:34:08;2.50;;;2.30;;
78916;SDS011;68315;48.608;11.436;2023-11-19T06:36:34;2.22;;;2.03;;
78916;SDS011;68315;48.608;11.436;2023-11-19T06:38:59;2.88;;;2.58;;
78916;SDS011;68315;48.608;11.436;2023-11-19T06:41:24;3.33;;;2.30;;
78916;SDS011;68315;48.608;11.436;2023-11-19T06:43:49;2.42;;;2.13;;
78916;SDS011;68315;48.608;11.436;2023-11-19T06:46:15;3.00;;;2.70;;
78916;SDS011;68315;48.608;11.436;2023-11-19T06:48:41;2.97;;;2.50;;
78916;SDS011;68315;48.608;11.436;2023-11-19T06:51:09;5.30;;;2.60;;
78916;SDS011;68315;48.608;11.436;2023-11-19T06:53:34;3.17;;;2.58;;
78916;SDS011;68315;48.608;11.436;2023-11-19T06:55:59;2.65;;;2.40;;
78916;SDS011;68315;48.608;11.436;2023-11-19T06:58:25;2.72;;;2.45;;
78916;SDS011;68315;48.608;11.436;2023-11-19T07:00:50;2.85;;;2.63;;
78916;SDS011;68315;48.608;11.436;2023-11-19T07:03:16;2.90;;;2.60;;
78916;SDS011;68315;48.608;11.436;2023-11-19T07:05:41;3.85;;;2.70;;
78916;SDS011;68315;48.608;11.436;2023-11-19T07:08:06;2.63;;;2.42;;
78916;SDS011;68315;48.608;11.436;2023-11-19T07:10:35;3.38;;;2.63;;
78916;SDS011;68315;48.608;11.436;2023-11-19T07:13:00;4.20;;;2.55;;
78916;SDS011;68315;48.608;11.436;2023-11-19T07:15:25;2.45;;;2.25;;
78916;SDS011;68315;48.608;11.436;2023-11-19T07:17:50;3.33;;;2.60;;
78916;SDS011;68315;48.608;11.436;2023-11-19T07:20:16;2.55;;;2.35;;
78916;SDS011;68315;48.608;11.436;2023-11-19T07:22:44;2.95;;;2.72;;
78916;SDS011;68315;48.608;11.436;2023-11-19T07:25:13;3.17;;;2.63;;
78916;SDS011;68315;48.608;11.436;2023-11-19T07:27:39;3.03;;;2.72;;
78916;SDS011;68315;48.608;11.436;2023-11-19T07:30:05;3.38;;;2.90;;
78916;SDS011;68315;48.608;11.436;2023-11-19T07:32:32;3.75;;;2.72;;
78916;SDS011;68315;48.608;11.436;2023-11-19T07:34:57;3.05;;;2.75;;
78916;SDS011;68315;48.608;11.436;2023-11-19T07:37:23;3.95;;;3.22;;
78916;SDS011;68315;48.608;11.436;2023-11-19T07:39:48;3.60;;;2.80;;
78916;SDS011;68315;48.608;11.436;2023-11-19T07:42:14;3.30;;;3.00;;
78916;SDS011;68315;48.608;11.436;2023-11-19T07:44:39;3.40;;;3.05;;
78916;SDS011;68315;48.608;11.436;2023-11-19T07:47:04;2.47;;;2.28;;
78916;SDS011;68315;48.608;11.436;2023-11-19T07:49:29;3.80;;;2.58;;
78916;SDS011;68315;48.608;11.436;2023-11-19T07:51:55;3.50;;;2.60;;
78916;SDS011;68315;48.608;11.436;2023-11-19T07:54:21;3.45;;;2.60;;
78916;SDS011;68315;48.608;11.436;2023-11-19T07:56:46;2.60;;;2.35;;
78916;SDS011;68315;48.608;11.436;2023-11-19T07:59:12;2.45;;;2.25;;
78916;SDS011;68315;48.608;11.436;2023-11-19T08:01:37;2.85;;;2.60;;
78916;SDS011;68315;48.608;11.436;2023-11-19T08:04:02;2.47;;;2.28;;
78916;SDS011;68315;48.608;11.436;2023-11-19T08:06:28;4.03;;;2.15;;
78916;SDS011;68315;48.608;11.436;2023-11-19T08:08:53;2.45;;;2.25;;
78916;SDS011;68315;48.608;11.436;2023-11-19T08:11:18;2.92;;;2.33;;
78916;SDS011;68315;48.608;11.436;2023-11-19T08:13:44;3.65;;;2.47;;
78916;SDS011;68315;48.608;11.436;2023-11-19T08:16:10;2.65;;;2.00;;
78916;SDS011;68315;48.608;11.436;2023-11-19T08:18:35;2.05;;;1.92;;
78916;SDS011;68315;48.608;11.436;2023-11-19T08:21:01;2.00;;;1.90;;
78916;SDS011;68315;48.608;11.436;2023-11-19T08:23:26;2.45;;;2.22;;
78916;SDS011;68315;48.608;11.436;2023-11-19T08:25:53;3.13;;;1.90;;
78916;SDS011;68315;48.608;11.436;2023-11-19T08:28:19;2.65;;;1.77;;
78916;SDS011;68315;48.608;11.436;2023-11-19T08:30:44;2.08;;;1.88;;
78916;SDS011;68315;48.608;11.436;2023-11-19T08:33:09;2.03;;;1.88;;
78916;SDS011;68315;48.608;11.436;2023-11-19T08:35:35;2.33;;;2.03;;
78916;SDS011;68315;48.608;11.436;2023-11-19T08:38:03;2.30;;;1.80;;
78916;SDS011;68315;48.608;11.436;2023-11-19T08:40:38;1.70;;;1.60;;
78916;SDS011;68315;48.608;11.436;2023-11-19T08:43:03;1.65;;;1.50;;
78916;SDS011;68315;48.608;11.436;2023-11-19T08:45:57;1.42;;;1.20;;
78916;SDS011;68315;48.608;11.436;2023-11-19T08:48:23;2.20;;;1.55;;
78916;SDS011;68315;48.608;11.436;2023-11-19T08:50:50;3.42;;;1.40;;
78916;SDS011;68315;48.608;11.436;2023-11-19T08:53:15;1.92;;;1.30;;
78916;SDS011;68315;48.608;11.436;2023-11-19T08:55:41;2.53;;;1.40;;
78916;SDS011;68315;48.608;11.436;2023-11-19T08:58:06;4.60;;;3.30;;
78916;SDS011;68315;48.608;11.436;2023-11-19T09:00:31;2.00;;;1.17;;
78916;SDS011;68315;48.608;11.436;2023-11-19T09:02:57;2.00;;;1.40;;
78916;SDS011;68315;48.608;11.436;2023-11-19T09:05:23;1.75;;;1.45;;
78916;SDS011;68315;48.608;11.436;2023-11-19T09:07:53;1.52;;;1.42;;
78916;SDS011;68315;48.608;11.436;2023-11-19T09:16:19;1.92;;;1.60;;
78916;SDS011;68315;48.608;11.436;2023-11-19T09:18:44;3.28;;;1.58;;
78916;SDS011;68315;48.608;11.436;2023-11-19T09:21:12;1.30;;;1.20;;
78916;SDS011;68315;48.608;11.436;2023-11-19T09:23:48;1.38;;;1.23;;
78916;SDS011;68315;48.608;11.436;2023-11-19T09:26:19;1.33;;;1.00;;
78916;SDS011;68315;48.608;11.436;2023-11-19T09:28:44;1.20;;;1.10;;
78916;SDS011;68315;48.608;11.436;2023-11-19T09:31:13;3.97;;;1.00;;
78916;SDS011;68315;48.608;11.436;2023-11-19T09:33:47;1.58;;;1.45;;
78916;SDS011;68315;48.608;11.436;2023-11-19T09:36:33;1.58;;;1.20;;
78916;SDS011;68315;48.608;11.436;2023-11-19T09:38:58;1.42;;;1.30;;
78916;SDS011;68315;48.608;11.436;2023-11-19T09:41:26;2.75;;;1.30;;
78916;SDS011;68315;48.608;11.436;2023-11-19T09:43:53;1.95;;;1.60;;
78916;SDS011;68315;48.608;11.436;2023-11-19T09:46:21;1.75;;;1.20;;
78916;SDS011;68315;48.608;11.436;2023-11-19T09:48:49;1.40;;;1.30;;
78916;SDS011;68315;48.608;11.436;2023-11-19T09:51:19;1.70;;;1.60;;
78916;SDS011;68315;48.608;11.436;2023-11-19T09:53:44;1.92;;;1.30;;
78916;SDS011;68315;48.608;11.436;2023-11-19T09:56:10;1.65;;;1.20;;
78916;SDS011;68315;48.608;11.436;2023-11-19T09:58:37;1.70;;;1.20;;
78916;SDS011;68315;48.608;11.436;2023-11-19T10:01:02;1.45;;;1.20;;
78916;SDS011;68315;48.608;11.436;2023-11-19T10:03:32;2.00;;;1.25;;
78916;SDS011;68315;48.608;11.436;2023-11-19T10:06:00;2.10;;;1.20;;
78916;SDS011;68315;48.608;11.436;2023-11-19T10:08:26;1.38;;;1.20;;
78916;SDS011;68315;48.608;11.436;2023-11-19T10:10:51;3.00;;;1.70;;
78916;SDS011;68315;48.608;11.436;2023-11-19T10:13:17;1.25;;;1.10;;
78916;SDS011;68315;48.608;11.436;2023-11-19T10:15:42;1.90;;;1.30;;
78916;SDS011;68315;48.608;11.436;2023-11-19T10:18:08;1.85;;;1.23;;
78916;SDS011;68315;48.608;11.436;2023-11-19T10:20:37;1.88;;;1.10;;
78916;SDS011;68315;48.608;11.436;2023-11-19T10:23:02;3.53;;;1.10;;
78916;SDS011;68315;48.608;11.436;2023-11-19T10:25:28;1.67;;;1.00;;
78916;SDS011;68315;48.608;11.436;2023-11-19T10:28:01;1.38;;;0.90;;
78916;SDS011;68315;48.608;11.436;2023-11-19T10:30:27;1.10;;;1.00;;
78916;SDS011;68315;48.608;11.436;2023-11-19T10:35:31;1.52;;;0.93;;
78916;SDS011;68315;48.608;11.436;2023-11-19T10:38:13;4.60;;;1.05;;
78916;SDS011;68315;48.608;11.436;2023-11-19T10:40:40;1.10;;;0.90;;
78916;SDS011;68315;48.608;11.436;2023-11-19T10:43:05;1.75;;;1.40;;
78916;SDS011;68315;48.608;11.436;2023-11-19T10:45:31;1.00;;;0.70;;
78916;SDS011;68315;48.608;11.436;2023-11-19T10:47:58;1.25;;;0.93;;
78916;SDS011;68315;48.608;11.436;2023-11-19T10:50:24;0.80;;;0.80;;
78916;SDS011;68315;48.608;11.436;2023-11-19T10:52:50;0.77;;;0.77;;
78916;SDS011;68315;48.608;11.436;2023-11-19T10:55:21;1.13;;;0.80;;
78916;SDS011;68315;48.608;11.436;2023-11-19T10:57:52;0.93;;;0.88;;
78916;SDS011;68315;48.608;11.436;2023-11-19T11:00:21;0.85;;;0.85;;
78916;SDS011;68315;48.608;11.436;2023-11-19T11:02:49;1.63;;;1.00;;
78916;SDS011;68315;48.608;11.436;2023-11-19T11:05:18;0.80;;;0.80;;
78916;SDS011;68315;48.608;11.436;2023-11-19T11:07:44;0.80;;;0.80;;
78916;SDS011;68315;48.608;11.436;2023-11-19T11:10:10;0.95;;;0.80;;
78916;SDS011;68315;48.608;11.436;2023-11-19T11:12:37;0.50;;;0.50;;
78916;SDS011;68315;48.608;11.436;2023-11-19T11:15:04;0.80;;;0.70;;
78916;SDS011;68315;48.608;11.436;2023-11-19T11:17:31;0.60;;;0.60;;
78916;SDS011;68315;48.608;11.436;2023-11-19T11:19:58;1.15;;;0.90;;
78916;SDS011;68315;48.608;11.436;2023-11-19T11:22:23;0.60;;;0.60;;
78916;SDS011;68315;48.608;11.436;2023-11-19T11:25:37;0.68;;;0.68;;
78916;SDS011;68315;48.608;11.436;2023-11-19T11:27:48;0.57;;;0.50;;
78916;SDS011;68315;48.608;11.436;2023-11-19T11:30:29;1.00;;;0.60;;
78916;SDS011;68315;48.608;11.436;2023-11-19T11:38:26;1.95;;;1.42;;
78916;SDS011;68315;48.608;11.436;2023-11-19T11:43:55;4.32;;;3.35;;
78916;SDS011;68315;48.608;11.436;2023-11-19T11:49:00;1.95;;;0.75;;
78916;SDS011;68315;48.608;11.436;2023-11-19T11:54:07;1.25;;;0.90;;
78916;SDS011;68315;48.608;11.436;2023-11-19T11:56:33;0.57;;;0.57;;
78916;SDS011;68315;48.608;11.436;2023-11-19T11:59:01;1.92;;;0.70;;
78916;SDS011;68315;48.608;11.436;2023-11-19T12:01:27;1.27;;;0.50;;
78916;SDS011;68315;48.608;11.436;2023-11-19T12:03:55;1.17;;;0.60;;
78916;SDS011;68315;48.608;11.436;2023-11-19T12:06:22;0.35;;;0.35;;
78916;SDS011;68315;48.608;11.436;2023-11-19T12:08:47;0.85;;;0.63;;
78916;SDS011;68315;48.608;11.436;2023-11-19T12:11:12;0.77;;;0.77;;
78916;SDS011;68315;48.608;11.436;2023-11-19T12:16:32;1.50;;;0.70;;
78916;SDS011;68315;48.608;11.436;2023-11-19T12:19:03;0.55;;;0.55;;
78916;SDS011;68315;48.608;11.436;2023-11-19T12:21:30;2.50;;;0.80;;
78916;SDS011;68315;48.608;11.436;2023-11-19T12:23:57;0.63;;;0.60;;
78916;SDS011;68315;48.608;11.436;2023-11-19T12:26:32;1.30;;;0.75;;
78916;SDS011;68315;48.608;11.436;2023-11-19T12:28:59;1.27;;;0.77;;
78916;SDS011;68315;48.608;11.436;2023-11-19T12:31:25;1.67;;;0.93;;
78916;SDS011;68315;48.608;11.436;2023-11-19T12:33:51;1.00;;;0.77;;
78916;SDS011;68315;48.608;11.436;2023-11-19T12:36:16;0.68;;;0.68;;
78916;SDS011;68315;48.608;11.436;2023-11-19T12:38:42;0.80;;;0.70;;
78916;SDS011;68315;48.608;11.436;2023-11-19T12:41:10;0.95;;;0.88;;
78916;SDS011;68315;48.608;11.436;2023-11-19T12:43:36;1.75;;;0.63;;
78916;SDS011;68315;48.608;11.436;2023-11-19T12:48:44;0.52;;;0.40;;
78916;SDS011;68315;48.608;11.436;2023-11-19T12:51:11;0.98;;;0.73;;
78916;SDS011;68315;48.608;11.436;2023-11-19T12:53:47;0.90;;;0.80;;
78916;SDS011;68315;48.608;11.436;2023-11-19T12:56:15;0.85;;;0.50;;
78916;SDS011;68315;48.608;11.436;2023-11-19T12:58:40;1.25;;;0.60;;
78916;SDS011;68315;48.608;11.436;2023-11-19T13:01:07;0.55;;;0.55;;
78916;SDS011;68315;48.608;11.436;2023-11-19T13:03:35;0.60;;;0.60;;
78916;SDS011;68315;48.608;11.436;2023-11-19T13:06:07;1.48;;;0.60;;
78916;SDS011;68315;48.608;11.436;2023-11-19T13:08:44;0.60;;;0.60;;
78916;SDS011;68315;48.608;11.436;2023-11-19T13:11:11;0.80;;;0.60;;
78916;SDS011;68315;48.608;11.436;2023-11-19T13:13:56;0.60;;;0.60;;
78916;SDS011;68315;48.608;11.436;2023-11-19T13:16:27;1.10;;;0.80;;
78916;SDS011;68315;48.608;11.436;2023-11-19T13:18:53;0.68;;;0.65;;
78916;SDS011;68315;48.608;11.436;2023-11-19T13:21:20;1.25;;;0.80;;
78916;SDS011;68315;48.608;11.436;2023-11-19T13:23:46;0.73;;;0.60;;
78916;SDS011;68315;48.608;11.436;2023-11-19T13:26:11;0.60;;;0.60;;
78916;SDS011;68315;48.608;11.436;2023-11-19T13:28:37;2.17;;;0.70;;
78916;SDS011;68315;48.608;11.436;2023-11-19T13:31:03;1.58;;;0.60;;
78916;SDS011;68315;48.608;11.436;2023-11-19T13:33:28;0.60;;;0.60;;
78916;SDS011;68315;48.608;11.436;2023-11-19T13:35:54;0.93;;;0.60;;
78916;SDS011;68315;48.608;11.436;2023-11-19T13:38:20;1.58;;;0.70;;
78916;SDS011;68315;48.608;11.436;2023-11-19T13:40:45;0.70;;;0.60;;
78916;SDS011;68315;48.608;11.436;2023-11-19T13:43:10;0.88;;;0.60;;
78916;SDS011;68315;48.608;11.436;2023-11-19T13:45:36;1.25;;;0.65;;
78916;SDS011;68315;48.608;11.436;2023-11-19T13:48:02;1.05;;;0.60;;
78916;SDS011;68315;48.608;11.436;2023-11-19T13:50:27;0.70;;;0.60;;
78916;SDS011;68315;48.608;11.436;2023-11-19T13:52:53;0.70;;;0.50;;
78916;SDS011;68315;48.608;11.436;2023-11-19T13:55:19;0.70;;;0.70;;
78916;SDS011;68315;48.608;11.436;2023-11-19T13:57:44;1.65;;;0.60;;
78916;SDS011;68315;48.608;11.436;2023-11-19T14:00:10;2.08;;;0.50;;
78916;SDS011;68315;48.608;11.436;2023-11-19T14:02:41;0.50;;;0.50;;
78916;SDS011;68315;48.608;11.436;2023-11-19T14:05:07;1.02;;;0.90;;
78916;SDS011;68315;48.608;11.436;2023-11-19T14:07:33;0.60;;;0.60;;
78916;SDS011;68315;48.608;11.436;2023-11-19T14:10:01;1.35;;;0.60;;
78916;SDS011;68315;48.608;11.436;2023-11-19T14:12:27;0.50;;;0.50;;
78916;SDS011;68315;48.608;11.436;2023-11-19T14:14:53;2.50;;;0.80;;
78916;SDS011;68315;48.608;11.436;2023-11-19T14:17:19;0.60;;;0.55;;
78916;SDS011;68315;48.608;11.436;2023-11-19T14:19:44;1.00;;;0.65;;
78916;SDS011;68315;48.608;11.436;2023-11-19T14:22:10;0.63;;;0.60;;
78916;SDS011;68315;48.608;11.436;2023-11-19T14:24:35;2.58;;;0.68;;
78916;SDS011;68315;48.608;11.436;2023-11-19T14:27:01;0.57;;;0.47;;
78916;SDS011;68315;48.608;11.436;2023-11-19T14:29:26;0.70;;;0.57;;
78916;SDS011;68315;48.608;11.436;2023-11-19T14:31:53;0.52;;;0.50;;
78916;SDS011;68315;48.608;11.436;2023-11-19T14:34:19;1.05;;;0.70;;
78916;SDS011;68315;48.608;11.436;2023-11-19T14:36:45;0.70;;;0.60;;
78916;SDS011;68315;48.608;11.436;2023-11-19T14:39:10;0.82;;;0.73;;
78916;SDS011;68315;48.608;11.436;2023-11-19T14:41:35;0.93;;;0.70;;
78916;SDS011;68315;48.608;11.436;2023-11-19T14:44:01;2.38;;;0.90;;
78916;SDS011;68315;48.608;11.436;2023-11-19T14:46:26;0.70;;;0.50;;
78916;SDS011;68315;48.608;11.436;2023-11-19T14:48:52;0.55;;;0.52;;
78916;SDS011;68315;48.608;11.436;2023-11-19T14:51:17;1.38;;;0.73;;
78916;SDS011;68315;48.608;11.436;2023-11-19T14:53:42;2.53;;;0.63;;
78916;SDS011;68315;48.608;11.436;2023-11-19T14:56:10;1.10;;;0.70;;
78916;SDS011;68315;48.608;11.436;2023-11-19T14:58:35;2.70;;;0.80;;
78916;SDS011;68315;48.608;11.436;2023-11-19T15:01:01;2.22;;;0.70;;